sensor_id;sensor_type;location;lat;lon;timestamp;P1;durP1;ratioP1;P2;durP2;ratioP2
44728;SDS011;30457;53.590;9.922;2023-12-07T00:04:14;64.47;;;25.20;;
44728;SDS011;30457;53.590;9.922;2023-12-07T00:08:40;64.03;;;24.10;;
44728;SDS011;30457;53.590;9.922;2023-12-07T00:13:05;66.75;;;24.17;;
44728;SDS011;30457;53.590;9.922;2023-12-07T00:17:31;62.20;;;22.85;;
44728;SDS011;30457;53.590;9.922;2023-12-07T00:21:57;63.03;;;24.13;;
44728;SDS011;30457;53.590;9.922;2023-12-07T00:26:22;57.60;;;23.58;;
44728;SDS011;30457;53.590;9.922;2023-12-07T00:30:48;60.38;;;23.08;;
44728;SDS011;30457;53.590;9.922;2023-12-07T00:35:13;55.05;;;22.88;;
44728;SDS011;30457;53.590;9.922;2023-12-07T00:39:40;63.22;;;24.30;;
44728;SDS011;30457;53.590;9.922;2023-12-07T00:44:06;57.20;;;22.98;;
44728;SDS011;30457;53.590;9.922;2023-12-07T00:48:32;53.85;;;22.90;;
44728;SDS011;30457;53.590;9.922;2023-12-07T00:52:57;63.15;;;24.58;;
44728;SDS011;30457;53.590;9.922;2023-12-07T00:57:23;61.10;;;23.80;;
44728;SDS011;30457;53.590;9.922;2023-12-07T01:01:48;67.38;;;23.70;;
44728;SDS011;30457;53.590;9.922;2023-12-07T01:06:14;60.22;;;21.73;;
44728;SDS011;30457;53.590;9.922;2023-12-07T01:10:41;58.10;;;23.75;;
44728;SDS011;30457;53.590;9.922;2023-12-07T01:15:07;64.55;;;23.52;;
44728;SDS011;30457;53.590;9.922;2023-12-07T01:19:33;54.20;;;22.40;;
44728;SDS011;30457;53.590;9.922;2023-12-07T01:23:59;56.80;;;20.77;;
44728;SDS011;30457;53.590;9.922;2023-12-07T01:28:24;55.35;;;22.38;;
44728;SDS011;30457;53.590;9.922;2023-12-07T01:32:50;59.95;;;22.58;;
44728;SDS011;30457;53.590;9.922;2023-12-07T01:37:15;57.63;;;22.77;;
44728;SDS011;30457;53.590;9.922;2023-12-07T01:41:41;56.60;;;21.63;;
44728;SDS011;30457;53.590;9.922;2023-12-07T01:46:08;56.58;;;21.00;;
44728;SDS011;30457;53.590;9.922;2023-12-07T01:50:33;62.15;;;22.05;;
44728;SDS011;30457;53.590;9.922;2023-12-07T01:54:59;63.05;;;22.08;;
44728;SDS011;30457;53.590;9.922;2023-12-07T01:59:26;63.95;;;23.38;;
44728;SDS011;30457;53.590;9.922;2023-12-07T02:03:51;55.97;;;22.80;;
44728;SDS011;30457;53.590;9.922;2023-12-07T02:08:17;54.30;;;20.27;;
44728;SDS011;30457;53.590;9.922;2023-12-07T02:12:42;64.57;;;23.92;;
44728;SDS011;30457;53.590;9.922;2023-12-07T02:17:14;56.15;;;21.52;;
44728;SDS011;30457;53.590;9.922;2023-12-07T02:21:52;52.67;;;20.02;;
44728;SDS011;30457;53.590;9.922;2023-12-07T02:26:29;53.58;;;21.70;;
44728;SDS011;30457;53.590;9.922;2023-12-07T02:30:56;49.05;;;20.15;;
44728;SDS011;30457;53.590;9.922;2023-12-07T02:35:22;59.10;;;22.58;;
44728;SDS011;30457;53.590;9.922;2023-12-07T02:39:48;47.15;;;20.63;;
44728;SDS011;30457;53.590;9.922;2023-12-07T02:44:16;48.50;;;19.55;;
44728;SDS011;30457;53.590;9.922;2023-12-07T02:48:42;43.83;;;19.70;;
44728;SDS011;30457;53.590;9.922;2023-12-07T02:53:07;49.08;;;20.25;;
44728;SDS011;30457;53.590;9.922;2023-12-07T02:57:33;47.92;;;19.98;;
44728;SDS011;30457;53.590;9.922;2023-12-07T03:01:58;43.80;;;20.38;;
44728;SDS011;30457;53.590;9.922;2023-12-07T03:06:24;49.70;;;19.85;;
44728;SDS011;30457;53.590;9.922;2023-12-07T03:10:49;50.90;;;19.30;;
44728;SDS011;30457;53.590;9.922;2023-12-07T03:15:15;43.67;;;19.75;;
44728;SDS011;30457;53.590;9.922;2023-12-07T03:19:40;58.22;;;23.45;;
44728;SDS011;30457;53.590;9.922;2023-12-07T03:24:07;42.05;;;20.30;;
44728;SDS011;30457;53.590;9.922;2023-12-07T03:28:33;48.67;;;21.08;;
44728;SDS011;30457;53.590;9.922;2023-12-07T03:32:59;46.97;;;20.95;;
44728;SDS011;30457;53.590;9.922;2023-12-07T03:37:24;49.67;;;20.58;;
44728;SDS011;30457;53.590;9.922;2023-12-07T03:41:50;40.30;;;19.70;;
44728;SDS011;30457;53.590;9.922;2023-12-07T03:46:16;45.70;;;19.70;;
44728;SDS011;30457;53.590;9.922;2023-12-07T03:50:42;47.42;;;19.60;;
44728;SDS011;30457;53.590;9.922;2023-12-07T03:55:07;41.70;;;19.15;;
44728;SDS011;30457;53.590;9.922;2023-12-07T03:59:35;41.50;;;19.25;;
44728;SDS011;30457;53.590;9.922;2023-12-07T04:04:01;36.33;;;18.02;;
44728;SDS011;30457;53.590;9.922;2023-12-07T04:08:27;37.08;;;18.77;;
44728;SDS011;30457;53.590;9.922;2023-12-07T04:12:52;42.08;;;20.23;;
44728;SDS011;30457;53.590;9.922;2023-12-07T04:17:18;37.10;;;17.48;;
44728;SDS011;30457;53.590;9.922;2023-12-07T04:21:44;34.72;;;17.75;;
44728;SDS011;30457;53.590;9.922;2023-12-07T04:26:09;43.38;;;19.80;;
44728;SDS011;30457;53.590;9.922;2023-12-07T04:30:35;41.10;;;19.77;;
44728;SDS011;30457;53.590;9.922;2023-12-07T04:35:00;40.70;;;18.20;;
44728;SDS011;30457;53.590;9.922;2023-12-07T04:39:26;36.22;;;17.58;;
44728;SDS011;30457;53.590;9.922;2023-12-07T04:43:52;42.10;;;18.60;;
44728;SDS011;30457;53.590;9.922;2023-12-07T04:48:17;39.92;;;18.20;;
44728;SDS011;30457;53.590;9.922;2023-12-07T04:52:43;36.30;;;18.17;;
44728;SDS011;30457;53.590;9.922;2023-12-07T04:57:08;39.95;;;18.77;;
44728;SDS011;30457;53.590;9.922;2023-12-07T05:01:35;37.40;;;17.60;;
44728;SDS011;30457;53.590;9.922;2023-12-07T05:06:01;31.67;;;17.73;;
44728;SDS011;30457;53.590;9.922;2023-12-07T05:10:26;37.55;;;17.75;;
44728;SDS011;30457;53.590;9.922;2023-12-07T05:14:52;33.78;;;15.68;;
44728;SDS011;30457;53.590;9.922;2023-12-07T05:19:17;38.00;;;18.30;;
44728;SDS011;30457;53.590;9.922;2023-12-07T05:23:46;32.30;;;16.42;;
44728;SDS011;30457;53.590;9.922;2023-12-07T05:28:11;35.38;;;16.33;;
44728;SDS011;30457;53.590;9.922;2023-12-07T05:32:37;33.90;;;16.17;;
44728;SDS011;30457;53.590;9.922;2023-12-07T05:37:03;29.17;;;15.43;;
44728;SDS011;30457;53.590;9.922;2023-12-07T05:41:29;30.30;;;15.57;;
44728;SDS011;30457;53.590;9.922;2023-12-07T05:45:54;32.60;;;16.08;;
44728;SDS011;30457;53.590;9.922;2023-12-07T05:50:20;30.02;;;15.52;;
44728;SDS011;30457;53.590;9.922;2023-12-07T05:54:46;28.55;;;16.55;;
44728;SDS011;30457;53.590;9.922;2023-12-07T05:59:13;30.63;;;15.10;;
44728;SDS011;30457;53.590;9.922;2023-12-07T06:03:38;30.58;;;16.08;;
44728;SDS011;30457;53.590;9.922;2023-12-07T06:08:04;27.33;;;15.85;;
44728;SDS011;30457;53.590;9.922;2023-12-07T06:12:30;34.80;;;17.38;;
44728;SDS011;30457;53.590;9.922;2023-12-07T06:16:55;32.00;;;16.17;;
44728;SDS011;30457;53.590;9.922;2023-12-07T06:21:21;32.55;;;16.10;;
44728;SDS011;30457;53.590;9.922;2023-12-07T06:25:47;35.90;;;18.77;;
44728;SDS011;30457;53.590;9.922;2023-12-07T06:30:13;32.72;;;16.20;;
44728;SDS011;30457;53.590;9.922;2023-12-07T06:34:41;32.80;;;17.50;;
44728;SDS011;30457;53.590;9.922;2023-12-07T06:39:07;30.80;;;16.65;;
44728;SDS011;30457;53.590;9.922;2023-12-07T06:43:33;34.38;;;17.65;;
44728;SDS011;30457;53.590;9.922;2023-12-07T06:47:58;46.03;;;16.65;;
44728;SDS011;30457;53.590;9.922;2023-12-07T06:52:24;31.83;;;16.67;;
44728;SDS011;30457;53.590;9.922;2023-12-07T06:56:49;34.78;;;15.80;;
44728;SDS011;30457;53.590;9.922;2023-12-07T07:01:15;27.15;;;15.48;;
44728;SDS011;30457;53.590;9.922;2023-12-07T07:05:40;28.08;;;16.30;;
44728;SDS011;30457;53.590;9.922;2023-12-07T07:10:06;33.30;;;17.02;;
44728;SDS011;30457;53.590;9.922;2023-12-07T07:14:35;30.00;;;16.10;;
44728;SDS011;30457;53.590;9.922;2023-12-07T07:19:00;31.70;;;16.23;;
44728;SDS011;30457;53.590;9.922;2023-12-07T07:23:26;29.40;;;16.45;;
44728;SDS011;30457;53.590;9.922;2023-12-07T07:27:52;30.02;;;16.23;;
44728;SDS011;30457;53.590;9.922;2023-12-07T07:32:19;32.78;;;17.60;;
44728;SDS011;30457;53.590;9.922;2023-12-07T07:36:45;30.33;;;16.33;;
44728;SDS011;30457;53.590;9.922;2023-12-07T07:41:10;25.33;;;15.95;;
44728;SDS011;30457;53.590;9.922;2023-12-07T07:45:36;31.40;;;18.33;;
44728;SDS011;30457;53.590;9.922;2023-12-07T07:50:01;35.00;;;18.50;;
44728;SDS011;30457;53.590;9.922;2023-12-07T07:54:30;35.60;;;17.38;;
44728;SDS011;30457;53.590;9.922;2023-12-07T07:58:56;29.27;;;16.42;;
44728;SDS011;30457;53.590;9.922;2023-12-07T08:03:25;32.95;;;17.13;;
44728;SDS011;30457;53.590;9.922;2023-12-07T08:07:50;32.05;;;17.33;;
44728;SDS011;30457;53.590;9.922;2023-12-07T08:12:16;35.78;;;18.65;;
44728;SDS011;30457;53.590;9.922;2023-12-07T08:16:42;31.35;;;17.10;;
44728;SDS011;30457;53.590;9.922;2023-12-07T08:21:21;33.08;;;17.30;;
44728;SDS011;30457;53.590;9.922;2023-12-07T08:25:47;29.20;;;16.60;;
44728;SDS011;30457;53.590;9.922;2023-12-07T08:30:13;30.60;;;17.15;;
44728;SDS011;30457;53.590;9.922;2023-12-07T08:34:38;30.27;;;16.27;;
44728;SDS011;30457;53.590;9.922;2023-12-07T08:39:04;33.90;;;17.20;;
44728;SDS011;30457;53.590;9.922;2023-12-07T08:43:34;30.23;;;17.33;;
44728;SDS011;30457;53.590;9.922;2023-12-07T08:48:00;49.58;;;20.17;;
44728;SDS011;30457;53.590;9.922;2023-12-07T08:52:25;37.03;;;18.58;;
44728;SDS011;30457;53.590;9.922;2023-12-07T08:56:51;35.45;;;18.58;;
44728;SDS011;30457;53.590;9.922;2023-12-07T09:01:17;27.98;;;16.00;;
44728;SDS011;30457;53.590;9.922;2023-12-07T09:05:42;36.30;;;18.50;;
44728;SDS011;30457;53.590;9.922;2023-12-07T09:10:08;27.15;;;15.85;;
44728;SDS011;30457;53.590;9.922;2023-12-07T09:14:34;30.27;;;16.58;;
44728;SDS011;30457;53.590;9.922;2023-12-07T09:19:00;37.28;;;17.77;;
44728;SDS011;30457;53.590;9.922;2023-12-07T09:23:26;33.20;;;17.80;;
44728;SDS011;30457;53.590;9.922;2023-12-07T09:27:52;35.60;;;19.13;;
44728;SDS011;30457;53.590;9.922;2023-12-07T09:32:18;34.35;;;17.42;;
44728;SDS011;30457;53.590;9.922;2023-12-07T09:36:44;35.53;;;18.10;;
44728;SDS011;30457;53.590;9.922;2023-12-07T09:41:10;34.33;;;18.40;;
44728;SDS011;30457;53.590;9.922;2023-12-07T09:45:36;34.72;;;18.30;;
44728;SDS011;30457;53.590;9.922;2023-12-07T09:50:01;34.22;;;17.95;;
44728;SDS011;30457;53.590;9.922;2023-12-07T09:54:27;33.45;;;18.00;;
44728;SDS011;30457;53.590;9.922;2023-12-07T09:58:54;35.47;;;18.45;;
44728;SDS011;30457;53.590;9.922;2023-12-07T10:03:21;32.40;;;18.10;;
44728;SDS011;30457;53.590;9.922;2023-12-07T10:07:48;30.30;;;16.95;;
44728;SDS011;30457;53.590;9.922;2023-12-07T10:12:14;31.92;;;15.93;;
44728;SDS011;30457;53.590;9.922;2023-12-07T10:16:52;31.30;;;16.50;;
44728;SDS011;30457;53.590;9.922;2023-12-07T10:21:32;29.33;;;16.77;;
44728;SDS011;30457;53.590;9.922;2023-12-07T10:25:58;31.73;;;15.80;;
44728;SDS011;30457;53.590;9.922;2023-12-07T10:30:25;29.58;;;16.40;;
44728;SDS011;30457;53.590;9.922;2023-12-07T10:34:52;30.93;;;16.57;;
44728;SDS011;30457;53.590;9.922;2023-12-07T10:39:18;30.38;;;16.20;;
44728;SDS011;30457;53.590;9.922;2023-12-07T10:43:46;29.70;;;16.05;;
44728;SDS011;30457;53.590;9.922;2023-12-07T10:48:25;24.75;;;13.90;;
44728;SDS011;30457;53.590;9.922;2023-12-07T10:52:52;26.73;;;14.65;;
44728;SDS011;30457;53.590;9.922;2023-12-07T10:57:22;26.23;;;14.90;;
44728;SDS011;30457;53.590;9.922;2023-12-07T11:01:48;28.45;;;14.85;;
44728;SDS011;30457;53.590;9.922;2023-12-07T11:06:13;27.38;;;15.30;;
44728;SDS011;30457;53.590;9.922;2023-12-07T11:11:00;28.52;;;15.43;;
44728;SDS011;30457;53.590;9.922;2023-12-07T11:15:31;27.88;;;15.25;;
44728;SDS011;30457;53.590;9.922;2023-12-07T11:19:56;26.17;;;16.20;;
44728;SDS011;30457;53.590;9.922;2023-12-07T11:24:25;28.98;;;16.73;;
44728;SDS011;30457;53.590;9.922;2023-12-07T11:28:51;31.17;;;16.15;;
44728;SDS011;30457;53.590;9.922;2023-12-07T11:33:16;25.65;;;14.65;;
44728;SDS011;30457;53.590;9.922;2023-12-07T11:38:01;27.13;;;15.25;;
44728;SDS011;30457;53.590;9.922;2023-12-07T11:42:31;28.60;;;14.75;;
44728;SDS011;30457;53.590;9.922;2023-12-07T11:46:56;27.77;;;15.00;;
44728;SDS011;30457;53.590;9.922;2023-12-07T11:51:22;24.77;;;14.15;;
44728;SDS011;30457;53.590;9.922;2023-12-07T11:55:47;25.05;;;13.50;;
44728;SDS011;30457;53.590;9.922;2023-12-07T12:00:13;24.38;;;14.35;;
44728;SDS011;30457;53.590;9.922;2023-12-07T12:04:42;25.90;;;13.93;;
44728;SDS011;30457;53.590;9.922;2023-12-07T12:09:07;22.73;;;12.90;;
44728;SDS011;30457;53.590;9.922;2023-12-07T12:13:35;21.92;;;12.73;;
44728;SDS011;30457;53.590;9.922;2023-12-07T12:18:01;25.73;;;13.40;;
44728;SDS011;30457;53.590;9.922;2023-12-07T12:22:27;22.95;;;13.55;;
44728;SDS011;30457;53.590;9.922;2023-12-07T12:26:53;25.63;;;13.73;;
44728;SDS011;30457;53.590;9.922;2023-12-07T12:31:19;23.23;;;14.57;;
44728;SDS011;30457;53.590;9.922;2023-12-07T12:35:45;24.17;;;14.05;;
44728;SDS011;30457;53.590;9.922;2023-12-07T12:40:11;26.65;;;14.60;;
44728;SDS011;30457;53.590;9.922;2023-12-07T12:44:41;24.15;;;14.73;;
44728;SDS011;30457;53.590;9.922;2023-12-07T12:49:08;23.63;;;14.35;;
44728;SDS011;30457;53.590;9.922;2023-12-07T12:53:33;25.83;;;15.40;;
44728;SDS011;30457;53.590;9.922;2023-12-07T12:57:59;26.85;;;14.40;;
44728;SDS011;30457;53.590;9.922;2023-12-07T13:02:25;30.30;;;15.32;;
44728;SDS011;30457;53.590;9.922;2023-12-07T13:06:50;24.15;;;13.25;;
44728;SDS011;30457;53.590;9.922;2023-12-07T13:11:16;24.35;;;13.65;;
44728;SDS011;30457;53.590;9.922;2023-12-07T13:15:45;25.25;;;14.48;;
44728;SDS011;30457;53.590;9.922;2023-12-07T13:20:11;23.67;;;14.68;;
44728;SDS011;30457;53.590;9.922;2023-12-07T13:24:38;28.40;;;15.50;;
44728;SDS011;30457;53.590;9.922;2023-12-07T13:29:03;29.02;;;16.67;;
44728;SDS011;30457;53.590;9.922;2023-12-07T13:33:29;31.98;;;17.85;;
44728;SDS011;30457;53.590;9.922;2023-12-07T13:37:55;29.30;;;16.85;;
44728;SDS011;30457;53.590;9.922;2023-12-07T13:42:22;27.98;;;15.93;;
44728;SDS011;30457;53.590;9.922;2023-12-07T13:46:51;30.75;;;16.58;;
44728;SDS011;30457;53.590;9.922;2023-12-07T13:51:18;32.72;;;18.50;;
44728;SDS011;30457;53.590;9.922;2023-12-07T13:55:45;30.98;;;17.55;;
44728;SDS011;30457;53.590;9.922;2023-12-07T14:00:11;34.72;;;18.38;;
44728;SDS011;30457;53.590;9.922;2023-12-07T14:04:38;34.95;;;19.35;;
44728;SDS011;30457;53.590;9.922;2023-12-07T14:09:04;36.47;;;17.65;;
44728;SDS011;30457;53.590;9.922;2023-12-07T14:13:29;32.05;;;16.73;;
44728;SDS011;30457;53.590;9.922;2023-12-07T14:17:55;34.35;;;17.42;;
44728;SDS011;30457;53.590;9.922;2023-12-07T14:22:20;32.38;;;17.48;;
44728;SDS011;30457;53.590;9.922;2023-12-07T14:26:46;30.90;;;16.33;;
44728;SDS011;30457;53.590;9.922;2023-12-07T14:31:12;35.30;;;18.88;;
44728;SDS011;30457;53.590;9.922;2023-12-07T14:35:41;38.10;;;18.30;;
44728;SDS011;30457;53.590;9.922;2023-12-07T14:40:07;35.95;;;18.90;;
44728;SDS011;30457;53.590;9.922;2023-12-07T14:44:33;31.73;;;17.70;;
44728;SDS011;30457;53.590;9.922;2023-12-07T14:48:59;35.28;;;18.15;;
44728;SDS011;30457;53.590;9.922;2023-12-07T14:53:25;37.42;;;19.00;;
44728;SDS011;30457;53.590;9.922;2023-12-07T14:57:50;33.15;;;17.10;;
44728;SDS011;30457;53.590;9.922;2023-12-07T15:02:16;33.47;;;17.10;;
44728;SDS011;30457;53.590;9.922;2023-12-07T15:06:41;41.08;;;19.55;;
44728;SDS011;30457;53.590;9.922;2023-12-07T15:11:07;40.17;;;20.23;;
44728;SDS011;30457;53.590;9.922;2023-12-07T15:15:33;35.55;;;17.15;;
44728;SDS011;30457;53.590;9.922;2023-12-07T15:19:58;32.83;;;16.88;;
44728;SDS011;30457;53.590;9.922;2023-12-07T15:24:24;39.67;;;18.98;;
44728;SDS011;30457;53.590;9.922;2023-12-07T15:28:49;33.58;;;17.08;;
44728;SDS011;30457;53.590;9.922;2023-12-07T15:33:15;35.28;;;18.50;;
44728;SDS011;30457;53.590;9.922;2023-12-07T15:37:42;37.30;;;17.27;;
44728;SDS011;30457;53.590;9.922;2023-12-07T15:42:08;34.22;;;16.92;;
44728;SDS011;30457;53.590;9.922;2023-12-07T15:46:34;28.60;;;15.20;;
44728;SDS011;30457;53.590;9.922;2023-12-07T15:51:00;27.92;;;15.23;;
44728;SDS011;30457;53.590;9.922;2023-12-07T15:55:25;28.55;;;15.45;;
44728;SDS011;30457;53.590;9.922;2023-12-07T15:59:51;27.63;;;14.30;;
44728;SDS011;30457;53.590;9.922;2023-12-07T16:04:16;28.88;;;14.93;;
44728;SDS011;30457;53.590;9.922;2023-12-07T16:08:43;26.63;;;15.48;;
44728;SDS011;30457;53.590;9.922;2023-12-07T16:13:09;26.30;;;13.90;;
44728;SDS011;30457;53.590;9.922;2023-12-07T16:17:35;26.35;;;14.05;;
44728;SDS011;30457;53.590;9.922;2023-12-07T16:22:01;29.23;;;15.82;;
44728;SDS011;30457;53.590;9.922;2023-12-07T16:26:26;31.20;;;14.70;;
44728;SDS011;30457;53.590;9.922;2023-12-07T16:30:52;30.65;;;15.25;;
44728;SDS011;30457;53.590;9.922;2023-12-07T16:35:17;32.08;;;15.70;;
44728;SDS011;30457;53.590;9.922;2023-12-07T16:39:43;29.65;;;14.30;;
44728;SDS011;30457;53.590;9.922;2023-12-07T16:44:09;31.58;;;15.38;;
44728;SDS011;30457;53.590;9.922;2023-12-07T16:48:35;31.73;;;16.10;;
44728;SDS011;30457;53.590;9.922;2023-12-07T16:53:01;29.88;;;14.85;;
44728;SDS011;30457;53.590;9.922;2023-12-07T16:57:26;33.00;;;15.48;;
44728;SDS011;30457;53.590;9.922;2023-12-07T17:01:52;31.40;;;16.20;;
44728;SDS011;30457;53.590;9.922;2023-12-07T17:06:17;34.70;;;14.98;;
44728;SDS011;30457;53.590;9.922;2023-12-07T17:10:44;30.42;;;15.48;;
44728;SDS011;30457;53.590;9.922;2023-12-07T17:15:09;29.35;;;15.52;;
44728;SDS011;30457;53.590;9.922;2023-12-07T17:19:35;27.17;;;14.82;;
44728;SDS011;30457;53.590;9.922;2023-12-07T17:24:01;30.55;;;15.10;;
44728;SDS011;30457;53.590;9.922;2023-12-07T17:28:26;28.98;;;15.23;;
44728;SDS011;30457;53.590;9.922;2023-12-07T17:32:52;28.83;;;14.52;;
44728;SDS011;30457;53.590;9.922;2023-12-07T17:37:18;26.80;;;14.52;;
44728;SDS011;30457;53.590;9.922;2023-12-07T17:41:47;27.33;;;14.50;;
44728;SDS011;30457;53.590;9.922;2023-12-07T17:46:12;26.80;;;13.98;;
44728;SDS011;30457;53.590;9.922;2023-12-07T17:50:38;26.90;;;13.07;;
44728;SDS011;30457;53.590;9.922;2023-12-07T17:55:07;26.45;;;14.32;;
44728;SDS011;30457;53.590;9.922;2023-12-07T17:59:33;30.67;;;15.60;;
44728;SDS011;30457;53.590;9.922;2023-12-07T18:03:59;29.30;;;15.35;;
44728;SDS011;30457;53.590;9.922;2023-12-07T18:08:24;36.05;;;16.50;;
44728;SDS011;30457;53.590;9.922;2023-12-07T18:12:50;36.17;;;18.10;;
44728;SDS011;30457;53.590;9.922;2023-12-07T18:17:15;34.75;;;17.70;;
44728;SDS011;30457;53.590;9.922;2023-12-07T18:21:45;35.60;;;16.63;;
44728;SDS011;30457;53.590;9.922;2023-12-07T18:26:11;34.47;;;16.90;;
44728;SDS011;30457;53.590;9.922;2023-12-07T18:30:37;28.67;;;14.93;;
44728;SDS011;30457;53.590;9.922;2023-12-07T18:35:04;22.77;;;11.82;;
44728;SDS011;30457;53.590;9.922;2023-12-07T18:39:30;26.27;;;14.32;;
44728;SDS011;30457;53.590;9.922;2023-12-07T18:43:55;27.38;;;12.80;;
44728;SDS011;30457;53.590;9.922;2023-12-07T18:48:21;26.98;;;13.43;;
44728;SDS011;30457;53.590;9.922;2023-12-07T18:52:46;25.90;;;13.57;;
44728;SDS011;30457;53.590;9.922;2023-12-07T18:57:12;31.73;;;14.15;;
44728;SDS011;30457;53.590;9.922;2023-12-07T19:01:37;29.23;;;14.43;;
44728;SDS011;30457;53.590;9.922;2023-12-07T19:06:03;25.05;;;12.55;;
44728;SDS011;30457;53.590;9.922;2023-12-07T19:10:30;24.05;;;12.32;;
44728;SDS011;30457;53.590;9.922;2023-12-07T19:14:56;28.67;;;13.40;;
44728;SDS011;30457;53.590;9.922;2023-12-07T19:19:22;28.85;;;13.07;;
44728;SDS011;30457;53.590;9.922;2023-12-07T19:23:48;27.13;;;13.30;;
44728;SDS011;30457;53.590;9.922;2023-12-07T19:28:15;27.52;;;13.85;;
44728;SDS011;30457;53.590;9.922;2023-12-07T19:32:40;30.17;;;13.52;;
44728;SDS011;30457;53.590;9.922;2023-12-07T19:37:06;33.67;;;14.65;;
44728;SDS011;30457;53.590;9.922;2023-12-07T19:41:31;28.75;;;13.85;;
44728;SDS011;30457;53.590;9.922;2023-12-07T19:45:58;32.70;;;17.17;;
44728;SDS011;30457;53.590;9.922;2023-12-07T19:50:23;33.15;;;16.10;;
44728;SDS011;30457;53.590;9.922;2023-12-07T19:54:52;35.95;;;16.35;;
44728;SDS011;30457;53.590;9.922;2023-12-07T19:59:18;36.35;;;17.17;;
44728;SDS011;30457;53.590;9.922;2023-12-07T20:03:44;35.40;;;16.75;;
44728;SDS011;30457;53.590;9.922;2023-12-07T20:08:10;31.88;;;15.25;;
44728;SDS011;30457;53.590;9.922;2023-12-07T20:12:36;32.50;;;14.85;;
44728;SDS011;30457;53.590;9.922;2023-12-07T20:17:02;31.70;;;14.68;;
44728;SDS011;30457;53.590;9.922;2023-12-07T20:21:27;35.42;;;17.17;;
44728;SDS011;30457;53.590;9.922;2023-12-07T20:25:53;33.53;;;15.02;;
44728;SDS011;30457;53.590;9.922;2023-12-07T20:30:19;41.10;;;16.70;;
44728;SDS011;30457;53.590;9.922;2023-12-07T20:34:44;37.38;;;15.38;;
44728;SDS011;30457;53.590;9.922;2023-12-07T20:39:12;33.15;;;14.52;;
44728;SDS011;30457;53.590;9.922;2023-12-07T20:43:41;31.45;;;14.18;;
44728;SDS011;30457;53.590;9.922;2023-12-07T20:48:06;27.83;;;13.02;;
44728;SDS011;30457;53.590;9.922;2023-12-07T20:52:32;28.63;;;13.85;;
44728;SDS011;30457;53.590;9.922;2023-12-07T20:56:58;33.22;;;15.23;;
44728;SDS011;30457;53.590;9.922;2023-12-07T21:01:23;35.38;;;15.30;;
44728;SDS011;30457;53.590;9.922;2023-12-07T21:05:49;35.80;;;15.23;;
44728;SDS011;30457;53.590;9.922;2023-12-07T21:10:15;35.10;;;14.00;;
44728;SDS011;30457;53.590;9.922;2023-12-07T21:14:40;32.53;;;14.40;;
44728;SDS011;30457;53.590;9.922;2023-12-07T21:19:06;30.20;;;13.48;;
44728;SDS011;30457;53.590;9.922;2023-12-07T21:23:32;24.65;;;12.95;;
44728;SDS011;30457;53.590;9.922;2023-12-07T21:27:57;30.92;;;14.45;;
44728;SDS011;30457;53.590;9.922;2023-12-07T21:32:23;29.98;;;12.65;;
44728;SDS011;30457;53.590;9.922;2023-12-07T21:36:48;36.47;;;14.68;;
44728;SDS011;30457;53.590;9.922;2023-12-07T21:41:14;22.35;;;11.30;;
44728;SDS011;30457;53.590;9.922;2023-12-07T21:45:39;32.08;;;14.10;;
44728;SDS011;30457;53.590;9.922;2023-12-07T21:50:05;42.08;;;15.75;;
44728;SDS011;30457;53.590;9.922;2023-12-07T21:54:31;31.02;;;13.07;;
44728;SDS011;30457;53.590;9.922;2023-12-07T21:58:56;32.05;;;13.95;;
44728;SDS011;30457;53.590;9.922;2023-12-07T22:03:22;30.63;;;13.55;;
44728;SDS011;30457;53.590;9.922;2023-12-07T22:07:48;28.83;;;13.90;;
44728;SDS011;30457;53.590;9.922;2023-12-07T22:12:13;27.75;;;13.93;;
44728;SDS011;30457;53.590;9.922;2023-12-07T22:16:39;30.52;;;12.82;;
44728;SDS011;30457;53.590;9.922;2023-12-07T22:21:07;34.03;;;14.25;;
44728;SDS011;30457;53.590;9.922;2023-12-07T22:25:35;28.50;;;12.90;;
44728;SDS011;30457;53.590;9.922;2023-12-07T22:30:00;30.27;;;14.52;;
44728;SDS011;30457;53.590;9.922;2023-12-07T22:34:26;28.77;;;13.18;;
44728;SDS011;30457;53.590;9.922;2023-12-07T22:38:51;28.52;;;13.32;;
44728;SDS011;30457;53.590;9.922;2023-12-07T22:43:17;29.00;;;12.88;;
44728;SDS011;30457;53.590;9.922;2023-12-07T22:47:42;29.25;;;13.75;;
44728;SDS011;30457;53.590;9.922;2023-12-07T22:52:09;28.15;;;12.25;;
44728;SDS011;30457;53.590;9.922;2023-12-07T22:56:34;27.17;;;13.27;;
44728;SDS011;30457;53.590;9.922;2023-12-07T23:01:00;27.95;;;13.07;;
44728;SDS011;30457;53.590;9.922;2023-12-07T23:05:25;29.30;;;12.20;;
44728;SDS011;30457;53.590;9.922;2023-12-07T23:09:51;25.75;;;13.32;;
44728;SDS011;30457;53.590;9.922;2023-12-07T23:14:16;20.02;;;10.48;;
44728;SDS011;30457;53.590;9.922;2023-12-07T23:18:42;23.23;;;12.65;;
44728;SDS011;30457;53.590;9.922;2023-12-07T23:23:07;23.95;;;11.02;;
44728;SDS011;30457;53.590;9.922;2023-12-07T23:27:33;26.30;;;12.27;;
44728;SDS011;30457;53.590;9.922;2023-12-07T23:31:58;24.08;;;12.32;;
44728;SDS011;30457;53.590;9.922;2023-12-07T23:36:24;25.50;;;11.30;;
44728;SDS011;30457;53.590;9.922;2023-12-07T23:40:50;27.23;;;13.52;;
44728;SDS011;30457;53.590;9.922;2023-12-07T23:45:15;24.60;;;11.15;;
44728;SDS011;30457;53.590;9.922;2023-12-07T23:49:41;23.10;;;12.05;;
44728;SDS011;30457;53.590;9.922;2023-12-07T23:54:06;27.95;;;12.30;;
44728;SDS011;30457;53.590;9.922;2023-12-07T23:58:32;22.95;;;12.50;;
